createdAt,value
2022-11-17T00:00:42.215Z,97020.72
2022-11-17T00:03:29.030Z,97022.09
2022-11-17T00:06:16.837Z,97010.84
2022-11-17T00:09:03.665Z,96998.59
2022-11-17T00:12:09.203Z,96984.75
2022-11-17T00:14:55.993Z,96986.94
2022-11-17T00:17:42.743Z,96997.22
2022-11-17T00:20:50.694Z,96998.03
2022-11-17T00:23:49.970Z,96999.03
2022-11-17T00:26:57.132Z,97000.69
2022-11-17T00:29:43.901Z,96999.41
2022-11-17T00:32:49.292Z,96998.44
2022-11-17T00:35:36.083Z,96995.25
2022-11-17T00:38:25.115Z,96984.72
2022-11-17T00:41:11.878Z,96977.88
2022-11-17T00:43:58.832Z,96982.59
2022-11-17T00:46:45.566Z,96979.53
2022-11-17T00:49:32.427Z,96977.88
2022-11-17T00:52:21.572Z,96979.25
2022-11-17T00:55:08.396Z,96979.25
2022-11-17T00:57:55.207Z,96984.38
2022-11-17T01:00:41.976Z,96976.31
2022-11-17T01:03:28.895Z,96969.63
2022-11-17T01:06:18.230Z,96971.31
2022-11-17T01:09:18.031Z,96962.41
2022-11-17T01:12:05.079Z,96933.25
2022-11-17T01:14:51.865Z,96962.06
2022-11-17T01:17:38.628Z,96948.66
2022-11-17T01:20:25.424Z,96957.63
2022-11-17T01:23:12.171Z,96954.16
2022-11-17T01:26:07.668Z,96945.97
2022-11-17T01:28:57.955Z,96948.72
2022-11-17T01:31:45.702Z,96941.78
2022-11-17T01:34:32.572Z,96952.34
2022-11-17T01:37:21.509Z,96936.91
2022-11-17T01:40:11.953Z,96932.19
2022-11-17T01:42:58.688Z,96927.31
2022-11-17T01:45:45.504Z,96930.38
2022-11-17T01:48:32.356Z,96930.66
2022-11-17T01:51:19.578Z,96920.25
2022-11-17T01:54:08.858Z,96914.22
2022-11-17T01:57:00.913Z,96921.84
2022-11-17T02:00:08.527Z,96899.19
2022-11-17T02:02:56.098Z,96887.75
2022-11-17T02:06:06.169Z,96889.56
2022-11-17T02:09:24.543Z,96865.66
2022-11-17T02:12:26.906Z,96731.84
2022-11-17T02:15:22.070Z,96888.06
2022-11-17T02:18:28.717Z,96746.47
2022-11-17T02:21:59.152Z,96880.00
2022-11-17T02:25:40.420Z,96877.09
2022-11-17T02:28:49.810Z,96869.56
2022-11-17T02:32:16.293Z,96831.56
2022-11-17T02:35:28.255Z,96784.50
2022-11-17T02:38:30.877Z,96849.19
2022-11-17T02:42:00.299Z,96857.88
2022-11-17T02:48:40.572Z,96728.50
2022-11-17T02:51:41.895Z,96677.59
2022-11-17T02:54:36.022Z,96653.78
2022-11-17T02:57:55.226Z,96662.59
2022-11-17T03:01:17.974Z,96833.56
2022-11-17T03:08:31.611Z,96802.47
2022-11-17T03:11:58.699Z,96795.28
2022-11-17T03:15:27.061Z,96631.91
2022-11-17T03:18:46.627Z,96618.59
2022-11-17T03:22:07.450Z,96615.44
2022-11-17T03:25:13.166Z,96814.91
2022-11-17T03:28:21.721Z,96614.75
2022-11-17T03:31:24.039Z,96786.16
2022-11-17T03:33:57.684Z,96636.09
2022-11-17T03:36:49.472Z,96722.91
2022-11-17T03:39:43.204Z,96631.00
2022-11-17T03:42:43.164Z,96611.38
2022-11-17T03:45:35.196Z,96752.88
2022-11-17T03:49:04.600Z,96791.97
2022-11-17T03:51:40.134Z,96591.38
2022-11-17T03:54:17.152Z,96682.38
2022-11-17T03:57:44.969Z,96776.56
2022-11-17T04:00:33.550Z,96602.63
2022-11-17T04:03:22.013Z,96767.03
2022-11-17T04:06:18.199Z,96645.69
2022-11-17T04:08:53.611Z,96742.91
2022-11-17T04:11:41.069Z,96752.03
2022-11-17T04:14:39.984Z,96673.84
2022-11-17T04:17:26.018Z,96570.44
2022-11-17T04:19:56.722Z,96752.38
2022-11-17T04:22:47.958Z,96586.44
2022-11-17T04:26:35.820Z,96669.16
2022-11-17T04:30:06.575Z,96719.13
2022-11-17T04:33:07.582Z,96711.16
2022-11-17T04:36:19.327Z,96727.16
2022-11-17T04:58:16.393Z,96705.66
2022-11-17T05:00:55.088Z,96636.50
2022-11-17T05:04:55.739Z,96547.09
2022-11-17T05:07:43.328Z,96694.66
2022-11-17T05:11:49.413Z,96714.78
2022-11-17T05:26:36.711Z,96567.28
2022-11-17T05:31:01.471Z,96557.19
2022-11-17T05:36:18.039Z,96566.22
2022-11-17T05:44:18.698Z,96669.13
2022-11-17T05:56:46.073Z,96565.53
2022-11-17T06:03:43.592Z,96721.19
2022-11-17T06:06:10.820Z,96696.94
2022-11-17T06:08:37.555Z,96718.75
2022-11-17T06:11:04.145Z,96721.94
2022-11-17T06:13:30.914Z,96713.91
2022-11-17T06:16:00.479Z,96720.66
2022-11-17T06:20:05.812Z,96726.66
2022-11-17T06:28:30.476Z,96642.38
2022-11-17T06:31:05.169Z,96680.41
2022-11-17T06:36:52.877Z,96653.16
2022-11-17T06:39:29.354Z,96688.19
2022-11-17T06:45:48.021Z,96664.06
2022-11-17T06:54:54.212Z,96765.53
2022-11-17T06:57:23.056Z,96748.34
2022-11-17T06:59:49.653Z,96730.97
2022-11-17T07:02:16.236Z,96724.25
2022-11-17T07:04:42.848Z,96728.56
2022-11-17T07:07:09.426Z,96728.25
2022-11-17T07:09:36.005Z,96723.19
2022-11-17T07:12:02.497Z,96714.03
2022-11-17T07:14:29.002Z,96710.66
2022-11-17T07:16:55.587Z,96717.84
2022-11-17T07:19:22.152Z,96707.97
2022-11-17T07:21:48.742Z,96709.81
2022-11-17T07:24:17.707Z,96717.81
2022-11-17T07:26:44.206Z,96720.69
2022-11-17T07:29:10.722Z,96738.34
2022-11-17T07:31:39.289Z,96719.84
2022-11-17T07:34:05.901Z,96709.34
2022-11-17T07:36:33.220Z,96686.34
2022-11-17T07:38:59.733Z,96705.13
2022-11-17T07:41:28.444Z,96722.22
2022-11-17T07:43:54.933Z,96702.88
2022-11-17T07:46:21.474Z,96691.09
2022-11-17T07:48:47.978Z,96696.66
2022-11-17T07:51:15.829Z,96699.16
2022-11-17T07:53:42.359Z,96703.09
2022-11-17T07:56:11.474Z,96695.75
2022-11-17T07:58:40.295Z,96705.66
2022-11-17T08:01:15.537Z,96709.28
2022-11-17T08:03:43.121Z,96708.66
2022-11-17T08:06:09.978Z,96710.00
2022-11-17T08:08:38.354Z,96710.31
2022-11-17T08:11:13.726Z,96713.94
2022-11-17T08:13:40.663Z,96704.09
2022-11-17T08:16:08.948Z,96702.75
2022-11-17T08:18:36.815Z,96717.41
2022-11-17T08:21:14.526Z,96699.75
2022-11-17T08:23:41.954Z,96705.56
2022-11-17T08:26:11.535Z,96704.09
2022-11-17T08:28:38.683Z,96704.06
2022-11-17T08:31:07.244Z,96694.06
2022-11-17T08:33:35.961Z,96712.38
2022-11-17T08:36:09.366Z,96699.53
2022-11-17T08:38:38.637Z,96696.16
2022-11-17T08:41:07.758Z,96698.56
2022-11-17T08:43:35.221Z,96706.56
2022-11-17T08:46:02.614Z,96713.06
2022-11-17T08:48:33.075Z,96723.47
2022-11-17T08:51:05.654Z,96742.53
2022-11-17T08:53:32.378Z,96742.53
2022-11-17T08:56:01.024Z,96749.47
2022-11-17T08:58:27.517Z,96753.72
2022-11-17T09:00:54.071Z,96752.97
2022-11-17T09:03:23.658Z,96754.81
2022-11-17T09:05:50.371Z,96757.28
2022-11-17T09:08:43.834Z,96755.47
2022-11-17T09:11:08.508Z,96741.53
2022-11-17T09:13:35.904Z,96743.66
2022-11-17T09:16:07.393Z,96749.78
2022-11-17T09:18:34.868Z,96748.50
2022-11-17T09:21:03.508Z,96746.59
2022-11-17T09:23:31.552Z,96746.09
2022-11-17T09:26:06.273Z,96741.69
2022-11-17T09:28:33.435Z,96732.91
2022-11-17T09:31:05.180Z,96731.09
2022-11-17T09:33:31.657Z,96727.44
2022-11-17T09:36:00.448Z,96719.59
2022-11-17T09:38:26.881Z,96709.03
2022-11-17T09:40:55.917Z,96707.91
2022-11-17T09:43:34.518Z,96714.91
2022-11-17T09:46:13.429Z,96718.75
2022-11-17T09:48:47.617Z,96732.72
2022-11-17T09:51:18.788Z,96724.81
2022-11-17T09:53:53.689Z,96728.44
2022-11-17T09:56:21.015Z,96725.06
2022-11-17T09:58:58.815Z,96729.25
2022-11-17T10:01:28.324Z,96719.66
2022-11-17T10:03:56.893Z,96707.25
2022-11-17T10:06:29.338Z,96708.47
2022-11-17T10:09:01.823Z,96700.69
2022-11-17T10:11:34.862Z,96682.81
2022-11-17T10:14:10.718Z,96695.44
2022-11-17T10:16:38.804Z,96694.63
2022-11-17T10:19:15.624Z,96701.78
2022-11-17T10:21:42.416Z,96708.75
2022-11-17T10:24:09.263Z,96704.94
2022-11-17T10:26:49.381Z,96698.13
2022-11-17T10:29:22.735Z,96710.38
2022-11-17T10:31:49.751Z,96698.66
2022-11-17T10:34:41.094Z,96708.91
2022-11-17T10:37:13.981Z,96711.69
2022-11-17T10:39:42.642Z,96702.75
2022-11-17T10:42:27.789Z,96703.09
2022-11-17T10:44:59.304Z,96719.69
2022-11-17T10:47:32.783Z,96724.00
2022-11-17T10:50:25.876Z,96720.97
2022-11-17T10:52:54.197Z,96726.31
2022-11-17T10:55:27.970Z,96717.53
2022-11-17T10:58:28.300Z,96736.59
2022-11-17T11:00:57.814Z,96727.94
2022-11-17T11:03:30.128Z,96716.84
2022-11-17T11:05:59.169Z,96714.81
2022-11-17T11:08:32.252Z,96707.34
2022-11-17T11:10:59.811Z,96703.94
2022-11-17T11:13:31.642Z,96711.41
2022-11-17T11:15:58.188Z,96706.59
2022-11-17T11:18:28.049Z,96695.91
2022-11-17T11:21:17.836Z,96707.16
2022-11-17T11:24:08.640Z,96692.94
2022-11-17T11:27:03.407Z,96699.84
2022-11-17T11:29:59.500Z,96687.25
2022-11-17T11:32:40.291Z,96688.72
2022-11-17T11:35:51.032Z,96680.03
2022-11-17T11:38:39.483Z,96676.38
2022-11-17T11:41:09.073Z,96680.91
2022-11-17T11:43:44.281Z,96679.41
2022-11-17T11:46:37.752Z,96677.88
2022-11-17T11:49:11.963Z,96678.53
2022-11-17T11:51:39.444Z,96671.72
2022-11-17T11:54:09.468Z,96668.53
2022-11-17T11:56:40.328Z,96674.81
2022-11-17T11:59:11.044Z,96674.50
2022-11-17T12:01:59.996Z,96664.66
2022-11-17T12:04:44.732Z,96663.72
2022-11-17T12:07:36.721Z,96665.44
2022-11-17T12:10:24.903Z,96669.41
2022-11-17T12:12:51.503Z,96643.91
2022-11-17T12:15:17.929Z,96668.41
2022-11-17T12:18:03.894Z,96659.78
2022-11-17T12:20:33.432Z,96672.38
2022-11-17T12:23:22.455Z,96664.38
2022-11-17T12:25:56.937Z,96659.31
2022-11-17T12:28:40.770Z,96662.56
2022-11-17T12:31:44.571Z,96661.66
2022-11-17T12:34:20.646Z,96671.16
2022-11-17T12:37:14.631Z,96682.16
2022-11-17T12:40:01.556Z,96678.25
2022-11-17T12:42:33.184Z,96659.69
2022-11-17T12:45:13.545Z,96675.28
2022-11-17T12:47:54.744Z,96654.69
2022-11-17T12:50:45.119Z,96648.88
2022-11-17T12:53:39.203Z,96655.84
2022-11-17T12:56:18.335Z,96609.50
2022-11-17T12:58:50.877Z,96643.78
2022-11-17T13:01:42.114Z,96652.66
2022-11-17T13:04:17.613Z,96684.13
2022-11-17T13:07:05.588Z,96721.63
2022-11-17T13:09:44.438Z,96737.78
2022-11-17T13:12:23.244Z,96613.31
2022-11-17T13:15:03.731Z,96633.19
2022-11-17T13:17:33.050Z,96592.28
2022-11-17T13:20:15.821Z,96694.59
2022-11-17T13:22:43.123Z,96774.66
2022-11-17T13:25:22.540Z,96617.69
2022-11-17T13:27:56.002Z,96617.25
2022-11-17T13:30:32.014Z,96633.34
2022-11-17T13:33:03.759Z,96677.91
2022-11-17T13:35:33.370Z,96651.06
2022-11-17T13:38:16.041Z,96580.22
2022-11-17T13:40:46.410Z,96677.59
2022-11-17T13:43:39.641Z,96570.44
2022-11-17T13:46:46.584Z,96555.50
2022-11-17T13:50:54.782Z,96557.94
2022-11-17T13:54:17.437Z,96579.78
2022-11-17T14:00:50.924Z,96740.63
2022-11-17T14:03:35.642Z,96742.97
2022-11-17T14:06:04.699Z,96739.31
2022-11-17T14:08:33.228Z,96730.19
2022-11-17T14:11:11.787Z,96721.41
2022-11-17T14:13:45.176Z,96723.25
2022-11-17T14:16:20.761Z,96735.72
2022-11-17T14:19:03.052Z,96735.25
2022-11-17T14:21:30.488Z,96738.38
2022-11-17T14:24:11.371Z,96744.69
2022-11-17T14:26:44.628Z,96745.19
2022-11-17T14:29:13.313Z,96743.69
2022-11-17T14:31:39.921Z,96731.25
2022-11-17T14:34:06.488Z,96735.91
2022-11-17T14:36:33.920Z,96726.94
2022-11-17T14:39:01.965Z,96739.72
2022-11-17T14:41:31.270Z,96734.91
2022-11-17T14:44:00.651Z,96737.56
2022-11-17T14:46:27.170Z,96741.72
2022-11-17T14:48:55.307Z,96745.19
2022-11-17T14:51:22.486Z,96743.03
2022-11-17T14:53:49.113Z,96751.34
2022-11-17T14:56:18.032Z,96758.13
2022-11-17T14:58:46.581Z,96747.38
2022-11-17T15:01:19.250Z,96747.19
2022-11-17T15:03:46.717Z,96743.38
2022-11-17T15:06:19.305Z,96735.94
2022-11-17T15:08:46.520Z,96744.34
2022-11-17T15:11:19.156Z,96745.88
2022-11-17T15:13:45.647Z,96736.59
2022-11-17T15:16:12.174Z,96726.97
2022-11-17T15:18:38.644Z,96729.94
2022-11-17T15:21:08.048Z,96726.47
2022-11-17T15:23:37.275Z,96735.78
2022-11-17T15:26:05.515Z,96734.44
2022-11-17T15:28:32.083Z,96731.59
2022-11-17T15:30:58.778Z,96744.53
2022-11-17T15:33:25.614Z,96755.63
2022-11-17T15:36:05.528Z,96741.56
2022-11-17T15:38:32.932Z,96741.22
2022-11-17T15:40:59.586Z,96742.72
2022-11-17T15:43:27.860Z,96741.72
2022-11-17T15:46:04.481Z,96735.25
2022-11-17T15:48:32.244Z,96732.94
2022-11-17T15:51:00.087Z,96738.75
2022-11-17T15:53:32.127Z,96745.53
2022-11-17T15:56:11.386Z,96742.56
2022-11-17T15:58:42.088Z,96748.84
2022-11-17T16:01:09.010Z,96739.72
2022-11-17T16:03:37.643Z,96695.66
2022-11-17T16:06:04.535Z,96733.25
2022-11-17T16:08:31.976Z,96742.41
2022-11-17T16:10:58.550Z,96744.53
2022-11-17T16:13:25.052Z,96748.19
2022-11-17T16:15:52.515Z,96776.38
2022-11-17T16:18:19.381Z,96776.84
2022-11-17T16:20:48.372Z,96800.41
2022-11-17T16:23:15.501Z,96806.69
2022-11-17T16:25:48.618Z,96790.63
2022-11-17T16:28:16.637Z,96791.75
2022-11-17T16:30:43.257Z,96793.44
2022-11-17T16:33:15.093Z,96801.88
2022-11-17T16:35:41.628Z,96794.44
2022-11-17T16:38:12.993Z,96799.06
2022-11-17T16:40:39.904Z,96787.47
2022-11-17T16:43:09.878Z,96789.13
2022-11-17T16:45:44.927Z,96782.84
2022-11-17T16:48:12.560Z,96763.25
2022-11-17T16:50:42.263Z,96791.28
2022-11-17T16:53:11.100Z,96784.00
2022-11-17T16:55:38.149Z,96786.66
2022-11-17T16:58:07.384Z,96777.19
2022-11-17T17:00:37.428Z,96772.06
2022-11-17T17:03:04.015Z,96776.69
2022-11-17T17:05:30.675Z,96777.69
2022-11-17T17:07:57.384Z,96769.88
2022-11-17T17:10:24.416Z,96773.00
2022-11-17T17:12:50.925Z,96758.91
2022-11-17T17:15:17.428Z,96772.03
2022-11-17T17:17:43.893Z,96772.69
2022-11-17T17:20:10.824Z,96783.97
2022-11-17T17:22:37.276Z,96790.47
2022-11-17T17:25:04.216Z,96785.63
2022-11-17T17:27:31.547Z,96786.63
2022-11-17T17:29:58.146Z,96776.00
2022-11-17T17:32:24.608Z,96780.00
2022-11-17T17:34:51.600Z,96793.25
2022-11-17T17:37:20.140Z,96783.16
2022-11-17T17:39:46.584Z,96779.16
2022-11-17T17:42:13.572Z,96782.94
2022-11-17T17:44:40.016Z,96775.84
2022-11-17T17:47:06.598Z,96766.03
2022-11-17T17:49:33.084Z,96768.84
2022-11-17T17:51:59.547Z,96768.06
2022-11-17T17:54:26.094Z,96753.16
2022-11-17T17:56:52.846Z,96755.13
2022-11-17T17:59:19.706Z,96765.38
2022-11-17T18:01:47.517Z,96763.72
2022-11-17T18:04:32.856Z,96764.53
2022-11-17T18:07:19.727Z,96760.69
2022-11-17T18:10:06.960Z,96757.72
2022-11-17T18:12:53.767Z,96752.63
2022-11-17T18:15:40.625Z,96745.16
2022-11-17T18:18:27.471Z,96738.50
2022-11-17T18:21:18.777Z,96730.59
2022-11-17T18:24:05.905Z,96732.63
2022-11-17T18:26:55.129Z,96737.09
2022-11-17T18:29:41.945Z,96735.25
2022-11-17T18:32:28.835Z,96729.59
2022-11-17T18:35:15.676Z,96724.81
2022-11-17T18:38:02.453Z,96722.31
2022-11-17T18:40:49.280Z,96721.19
2022-11-17T18:43:36.424Z,96711.41
2022-11-17T18:46:25.277Z,96715.53
2022-11-17T18:49:12.082Z,96727.75
2022-11-17T18:52:06.313Z,96728.75
2022-11-17T18:54:53.123Z,96721.97
2022-11-17T18:57:44.661Z,96732.94
2022-11-17T19:00:31.900Z,96742.19
2022-11-17T19:03:21.109Z,96734.41
2022-11-17T19:06:09.524Z,96745.00
2022-11-17T19:08:58.756Z,96739.38
2022-11-17T19:11:45.542Z,96754.94
2022-11-17T19:14:32.884Z,96751.47
2022-11-17T19:17:19.686Z,96759.44
2022-11-17T19:20:07.196Z,96751.66
2022-11-17T19:22:55.040Z,96748.50
2022-11-17T19:25:42.506Z,96750.66
2022-11-17T19:28:29.283Z,96764.91
2022-11-17T19:31:18.694Z,96762.59
2022-11-17T19:34:05.848Z,96768.22
2022-11-17T19:36:52.869Z,96790.25
2022-11-17T19:39:39.707Z,96789.38
2022-11-17T19:42:26.499Z,96789.22
2022-11-17T19:45:13.324Z,96793.22
2022-11-17T19:48:00.889Z,96792.19
2022-11-17T19:50:51.694Z,96780.59
2022-11-17T19:53:42.416Z,96788.03
2022-11-17T19:56:29.826Z,96789.75
2022-11-17T19:59:16.988Z,96791.09
2022-11-17T20:02:03.841Z,96784.44
2022-11-17T20:04:50.635Z,96772.47
2022-11-17T20:07:37.603Z,96780.22
2022-11-17T20:10:24.463Z,96794.88
2022-11-17T20:13:11.237Z,96788.59
2022-11-17T20:16:05.129Z,96776.66
2022-11-17T20:18:57.028Z,96791.03
2022-11-17T20:21:45.887Z,96804.16
2022-11-17T20:24:32.924Z,96807.78
2022-11-17T20:27:22.103Z,96813.13
2022-11-17T20:30:13.783Z,96806.31
2022-11-17T20:33:04.377Z,96804.00
2022-11-17T20:35:51.181Z,96805.50
2022-11-17T20:38:38.049Z,96804.00
2022-11-17T20:41:25.294Z,96812.09
2022-11-17T20:44:23.706Z,96815.09
2022-11-17T20:47:11.107Z,96803.97
2022-11-17T20:49:57.897Z,96789.53
2022-11-17T20:52:44.698Z,96782.56
2022-11-17T20:55:31.492Z,96780.69
2022-11-17T20:58:18.406Z,96769.59
2022-11-17T21:01:16.483Z,96761.13
2022-11-17T21:04:03.602Z,96772.34
2022-11-17T21:06:52.701Z,96782.31
2022-11-17T21:09:39.611Z,96781.03
2022-11-17T21:12:27.127Z,96788.84
2022-11-17T21:15:14.071Z,96774.53
2022-11-17T21:18:19.327Z,96778.53
2022-11-17T21:21:09.324Z,96782.34
2022-11-17T21:23:56.235Z,96787.78
2022-11-17T21:26:43.347Z,96777.69
2022-11-17T21:29:30.178Z,96781.19
2022-11-17T21:32:16.983Z,96775.53
2022-11-17T21:35:05.811Z,96779.53
2022-11-17T21:37:55.641Z,96773.69
2022-11-17T21:40:42.428Z,96771.72
2022-11-17T21:43:29.757Z,96780.47
2022-11-17T21:46:23.138Z,96777.16
2022-11-17T21:49:09.951Z,96764.53
2022-11-17T21:51:56.751Z,96780.63
2022-11-17T21:54:43.553Z,96785.72
2022-11-17T21:57:30.499Z,96782.91
2022-11-17T22:00:17.848Z,96775.13
2022-11-17T22:03:04.733Z,96778.31
2022-11-17T22:05:52.342Z,96785.78
2022-11-17T22:08:41.759Z,96780.28
2022-11-17T22:11:37.282Z,96787.91
2022-11-17T22:14:26.859Z,96787.09
2022-11-17T22:17:13.632Z,96786.59
2022-11-17T22:20:00.384Z,96783.94
2022-11-17T22:22:53.666Z,96785.78
2022-11-17T22:25:45.161Z,96791.25
2022-11-17T22:28:32.798Z,96796.88
2022-11-17T22:31:19.948Z,96802.22
2022-11-17T22:34:06.717Z,96805.47
2022-11-17T22:36:53.484Z,96806.78
2022-11-17T22:39:40.284Z,96810.78
2022-11-17T22:42:27.055Z,96806.47
2022-11-17T22:45:13.872Z,96809.78
2022-11-17T22:48:01.662Z,96819.56
2022-11-17T22:50:48.483Z,96823.50
2022-11-17T22:53:35.387Z,96834.16
2022-11-17T22:56:22.146Z,96822.38
2022-11-17T22:59:09.651Z,96821.28
2022-11-17T23:01:58.577Z,96828.06
2022-11-17T23:04:45.344Z,96823.66
2022-11-17T23:07:34.407Z,96826.78
2022-11-17T23:10:21.462Z,96829.78
2022-11-17T23:13:08.237Z,96780.28
2022-11-17T23:15:55.119Z,96832.22
2022-11-17T23:18:42.178Z,96832.06
2022-11-17T23:21:29.359Z,96823.44
2022-11-17T23:24:23.399Z,96831.91
2022-11-17T23:27:10.188Z,96826.84
2022-11-17T23:29:56.957Z,96829.34
2022-11-17T23:32:43.724Z,96822.16
2022-11-17T23:35:30.546Z,96818.88
2022-11-17T23:38:17.307Z,96817.75
2022-11-17T23:41:06.951Z,96818.53
2022-11-17T23:43:54.584Z,96817.56
2022-11-17T23:46:41.955Z,96824.34
2022-11-17T23:49:28.916Z,96824.03
2022-11-17T23:52:15.763Z,96815.25
2022-11-17T23:55:02.853Z,96813.75
2022-11-17T23:57:49.610Z,96806.13
